createdAt,value
2022-09-30T00:00:12.991Z,99488.88
2022-09-30T00:03:16.056Z,99476.81
2022-09-30T00:06:18.101Z,99483.09
2022-09-30T00:09:21.686Z,99482.72
2022-09-30T00:12:23.544Z,99486.00
2022-09-30T00:15:25.194Z,99476.28
2022-09-30T00:18:28.533Z,99475.75
2022-09-30T00:21:30.343Z,99466.06
2022-09-30T00:24:31.967Z,99477.63
2022-09-30T00:27:33.605Z,99474.06
2022-09-30T00:30:35.588Z,99473.00
2022-09-30T00:33:38.589Z,99471.28
2022-09-30T00:36:43.813Z,99485.84
2022-09-30T00:39:45.460Z,99484.53
2022-09-30T00:42:47.111Z,99481.25
2022-09-30T00:45:53.549Z,99482.19
2022-09-30T00:48:58.508Z,99486.09
2022-09-30T00:52:00.433Z,99478.66
2022-09-30T00:55:09.462Z,99478.00
2022-09-30T00:58:15.950Z,99474.75
2022-09-30T01:01:18.632Z,99469.75
2022-09-30T01:04:24.319Z,99478.13
2022-09-30T01:07:26.096Z,99473.53
2022-09-30T01:10:27.738Z,99478.13
2022-09-30T01:13:32.026Z,99486.78
2022-09-30T01:16:47.991Z,99487.69
2022-09-30T01:20:19.605Z,99486.53
2022-09-30T01:23:44.430Z,99488.09
2022-09-30T01:26:58.318Z,99489.69
2022-09-30T01:30:14.995Z,99495.44
2022-09-30T01:33:24.809Z,99497.00
2022-09-30T01:36:43.964Z,99498.56
2022-09-30T01:39:57.454Z,99501.47
2022-09-30T01:43:06.289Z,99508.53
2022-09-30T01:46:19.626Z,99502.25
2022-09-30T01:49:29.832Z,99508.66
2022-09-30T01:52:39.157Z,99503.69
2022-09-30T01:55:47.190Z,99504.75
2022-09-30T01:58:53.479Z,99509.84
2022-09-30T02:01:58.405Z,99517.31
2022-09-30T02:05:02.884Z,99511.28
2022-09-30T02:08:10.056Z,99513.38
2022-09-30T02:11:15.702Z,99527.28
2022-09-30T02:14:23.549Z,99520.72
2022-09-30T02:17:29.886Z,99512.47
2022-09-30T02:20:37.248Z,99521.91
2022-09-30T02:23:42.472Z,99522.81
2022-09-30T02:26:48.203Z,99523.34
2022-09-30T02:29:56.449Z,99529.66
2022-09-30T02:33:02.040Z,99526.47
2022-09-30T02:36:10.353Z,99527.41
2022-09-30T02:39:20.226Z,99526.34
2022-09-30T02:42:28.871Z,99526.09
2022-09-30T02:45:38.594Z,99533.69
2022-09-30T02:48:47.773Z,99532.78
2022-09-30T02:52:01.898Z,99534.34
2022-09-30T02:55:17.802Z,99538.69
2022-09-30T02:58:21.408Z,99542.75
2022-09-30T03:01:24.528Z,99545.38
2022-09-30T03:04:30.488Z,99554.94
2022-09-30T03:07:34.493Z,99554.41
2022-09-30T03:10:36.469Z,99557.03
2022-09-30T03:14:19.014Z,99557.03
2022-09-30T03:17:34.568Z,99557.00
2022-09-30T03:20:48.386Z,99557.81
2022-09-30T03:24:07.320Z,99559.00
2022-09-30T03:27:17.501Z,99570.63
2022-09-30T03:30:24.541Z,99556.59
2022-09-30T03:33:35.993Z,99561.84
2022-09-30T03:36:41.353Z,99555.69
2022-09-30T03:39:55.380Z,99559.34
2022-09-30T03:43:02.800Z,99571.53
2022-09-30T03:46:09.952Z,99576.78
2022-09-30T03:49:16.817Z,99574.94
2022-09-30T03:52:19.193Z,99574.94
2022-09-30T03:55:23.574Z,99572.78
2022-09-30T03:58:25.629Z,99578.66
2022-09-30T04:01:27.372Z,99566.19
2022-09-30T04:04:29.013Z,99569.63
2022-09-30T04:07:30.760Z,99575.63
2022-09-30T04:10:33.857Z,99573.78
2022-09-30T04:13:35.541Z,99579.41
2022-09-30T04:16:37.375Z,99590.34
2022-09-30T04:19:40.259Z,99583.66
2022-09-30T04:22:42.103Z,99597.31
2022-09-30T04:25:52.040Z,99602.19
2022-09-30T04:28:53.766Z,99605.16
2022-09-30T04:31:55.598Z,99608.19
2022-09-30T04:34:57.333Z,99609.25
2022-09-30T04:37:58.944Z,99613.84
2022-09-30T04:41:05.318Z,99608.25
2022-09-30T04:44:07.190Z,99625.44
2022-09-30T04:47:09.145Z,99623.84
2022-09-30T04:50:10.805Z,99630.53
2022-09-30T04:53:14.654Z,99625.09
2022-09-30T04:56:18.276Z,99633.03
2022-09-30T04:59:20.047Z,99635.16
2022-09-30T05:02:21.780Z,99640.53
2022-09-30T05:05:23.700Z,99646.56
2022-09-30T05:08:25.330Z,99642.13
2022-09-30T05:11:29.493Z,99644.44
2022-09-30T05:14:31.426Z,99650.44
2022-09-30T05:17:33.773Z,99647.81
2022-09-30T05:20:35.566Z,99656.13
2022-09-30T05:23:38.254Z,99645.69
2022-09-30T05:26:41.375Z,99653.50
2022-09-30T05:29:43.473Z,99658.59
2022-09-30T05:32:45.970Z,99668.44
2022-09-30T05:35:47.803Z,99662.16
2022-09-30T05:38:51.337Z,99673.59
2022-09-30T05:41:56.104Z,99689.59
2022-09-30T05:44:57.780Z,99694.22
2022-09-30T05:47:59.793Z,99701.09
2022-09-30T05:51:02.244Z,99703.94
2022-09-30T05:54:03.955Z,99719.91
2022-09-30T05:57:08.187Z,99723.47
2022-09-30T06:00:11.067Z,99733.72
2022-09-30T06:03:16.319Z,99741.41
2022-09-30T06:06:19.636Z,99740.81
2022-09-30T06:09:21.495Z,99754.25
2022-09-30T06:12:27.401Z,99750.59
2022-09-30T06:15:29.325Z,99752.28
2022-09-30T06:18:31.121Z,99751.22
2022-09-30T06:21:33.064Z,99759.53
2022-09-30T06:24:34.814Z,99757.34
2022-09-30T06:27:38.276Z,99763.28
2022-09-30T06:30:40.047Z,99764.66
2022-09-30T06:33:42.484Z,99762.78
2022-09-30T06:36:44.146Z,99765.44
2022-09-30T06:39:45.800Z,99779.69
2022-09-30T06:42:49.858Z,99776.69
2022-09-30T06:45:52.395Z,99783.16
2022-09-30T06:49:04.915Z,99788.66
2022-09-30T06:52:09.209Z,99794.53
2022-09-30T06:55:10.964Z,99792.03
2022-09-30T06:58:15.700Z,99802.75
2022-09-30T07:01:17.691Z,99803.72
2022-09-30T07:04:19.655Z,99807.72
2022-09-30T07:07:22.266Z,99809.97
2022-09-30T07:10:24.052Z,99796.75
2022-09-30T07:13:28.473Z,99800.03
2022-09-30T07:16:31.916Z,99798.59
2022-09-30T07:19:34.545Z,99805.25
2022-09-30T07:22:36.301Z,99805.13
2022-09-30T07:25:38.042Z,99810.66
2022-09-30T07:28:41.222Z,99808.97
2022-09-30T07:31:42.944Z,99823.38
2022-09-30T07:34:44.726Z,99825.03
2022-09-30T07:37:46.422Z,99835.50
2022-09-30T07:40:56.930Z,99834.59
2022-09-30T07:44:00.159Z,99842.94
2022-09-30T07:47:01.815Z,99841.84
2022-09-30T07:50:04.140Z,99844.03
2022-09-30T07:53:05.883Z,99844.66
2022-09-30T07:56:08.438Z,99844.78
2022-09-30T07:59:12.406Z,99847.69
2022-09-30T08:02:16.945Z,99853.81
2022-09-30T08:05:18.854Z,99858.50
2022-09-30T08:08:21.095Z,99869.72
2022-09-30T08:11:23.795Z,99870.47
2022-09-30T08:14:27.974Z,99866.34
2022-09-30T08:17:29.692Z,99866.06
2022-09-30T08:20:31.867Z,99869.72
2022-09-30T08:23:34.472Z,99876.19
2022-09-30T08:26:36.800Z,99874.88
2022-09-30T08:29:53.997Z,99874.19
2022-09-30T08:32:57.969Z,99877.53
2022-09-30T08:36:03.468Z,99882.28
2022-09-30T08:39:05.965Z,99878.16
2022-09-30T08:42:36.861Z,99887.53
2022-09-30T08:45:51.956Z,99891.97
2022-09-30T08:49:03.461Z,99888.47
2022-09-30T08:52:16.003Z,99889.06
2022-09-30T08:55:31.526Z,99878.16
2022-09-30T08:58:37.118Z,99870.53
2022-09-30T09:01:44.526Z,99875.69
2022-09-30T09:04:47.865Z,99869.41
2022-09-30T09:07:58.616Z,99859.63
2022-09-30T09:11:06.234Z,99859.16
2022-09-30T09:14:18.031Z,99861.84
2022-09-30T09:17:31.996Z,99868.88
2022-09-30T09:20:41.196Z,99865.75
2022-09-30T09:23:43.418Z,99868.25
2022-09-30T09:26:45.188Z,99866.25
2022-09-30T09:29:58.630Z,99867.22
2022-09-30T09:33:15.998Z,99867.00
2022-09-30T09:36:36.239Z,99867.50
2022-09-30T09:40:04.161Z,99872.75
2022-09-30T09:43:18.565Z,99869.44
2022-09-30T09:46:24.996Z,99868.69
2022-09-30T09:49:31.417Z,99880.00
2022-09-30T09:52:54.794Z,99888.81
2022-09-30T09:55:59.888Z,99889.31
2022-09-30T09:59:13.386Z,99880.38
2022-09-30T10:02:23.224Z,99885.00
2022-09-30T10:05:28.401Z,99887.41
2022-09-30T10:08:32.933Z,99889.38
2022-09-30T10:11:34.711Z,99891.16
2022-09-30T10:14:46.091Z,99888.25
2022-09-30T10:17:54.088Z,99890.94
2022-09-30T10:21:00.623Z,99888.63
2022-09-30T10:24:19.882Z,99875.97
2022-09-30T10:27:30.565Z,99876.31
2022-09-30T10:30:36.121Z,99872.31
2022-09-30T10:33:45.054Z,99871.84
2022-09-30T10:36:48.871Z,99869.06
2022-09-30T10:39:58.816Z,99867.63
2022-09-30T10:43:00.601Z,99871.31
2022-09-30T10:49:29.693Z,99870.75
2022-09-30T10:52:37.113Z,99862.50
2022-09-30T10:55:43.145Z,99854.56
2022-09-30T10:58:48.244Z,99857.88
2022-09-30T11:01:57.622Z,99856.31
2022-09-30T11:05:10.860Z,99848.09
2022-09-30T11:08:18.068Z,99843.31
2022-09-30T11:11:24.744Z,99847.03
2022-09-30T11:14:33.076Z,99851.28
2022-09-30T11:17:42.803Z,99849.91
2022-09-30T11:20:51.582Z,99861.44
2022-09-30T11:24:00.794Z,99852.56
2022-09-30T11:27:10.545Z,99857.59
2022-09-30T11:30:16.429Z,99851.28
2022-09-30T11:33:38.511Z,99847.31
2022-09-30T11:36:48.231Z,99854.78
2022-09-30T11:40:02.243Z,99853.59
2022-09-30T11:43:14.240Z,99857.59
2022-09-30T11:46:34.686Z,99850.66
2022-09-30T11:49:51.245Z,99844.88
2022-09-30T11:53:02.663Z,99858.28
2022-09-30T11:56:23.688Z,99859.03
2022-09-30T11:59:29.334Z,99850.53
2022-09-30T12:02:38.009Z,99848.78
2022-09-30T12:05:42.849Z,99846.34
2022-09-30T12:08:50.164Z,99849.25
2022-09-30T12:11:58.686Z,99854.06
2022-09-30T12:15:02.949Z,99856.13
2022-09-30T12:18:09.555Z,99856.66
2022-09-30T12:21:19.247Z,99857.47
2022-09-30T12:24:27.189Z,99869.09
2022-09-30T12:27:35.455Z,99860.38
2022-09-30T12:30:37.356Z,99862.41
2022-09-30T12:33:55.077Z,99866.59
2022-09-30T12:37:11.445Z,99864.16
2022-09-30T12:40:26.476Z,99868.34
2022-09-30T12:43:58.033Z,99866.50
2022-09-30T12:47:14.952Z,99869.53
2022-09-30T12:50:20.106Z,99876.78
2022-09-30T12:53:26.026Z,99871.34
2022-09-30T12:56:30.242Z,99865.56
2022-09-30T12:59:36.129Z,99864.88
2022-09-30T13:02:41.971Z,99874.25
2022-09-30T13:05:52.804Z,99865.88
2022-09-30T13:09:19.084Z,99859.81
2022-09-30T13:12:25.839Z,99865.19
2022-09-30T13:15:43.178Z,99876.53
2022-09-30T13:18:59.949Z,99868.97
2022-09-30T13:22:50.471Z,99876.25
2022-09-30T13:25:56.123Z,99874.19
2022-09-30T13:29:31.301Z,99879.41
2022-09-30T13:32:37.677Z,99880.13
2022-09-30T13:35:50.242Z,99871.03
2022-09-30T13:39:20.371Z,99875.22
2022-09-30T13:42:26.890Z,99872.34
2022-09-30T13:45:35.616Z,99862.97
2022-09-30T13:48:42.678Z,99859.63
2022-09-30T13:51:44.924Z,99864.31
2022-09-30T13:54:48.898Z,99867.75
2022-09-30T13:58:03.468Z,99862.69
2022-09-30T14:01:14.064Z,99856.47
2022-09-30T14:04:35.598Z,99860.59
2022-09-30T14:07:51.441Z,99859.78
2022-09-30T14:11:06.216Z,99869.34
2022-09-30T14:14:34.466Z,99861.41
2022-09-30T14:17:52.541Z,99851.72
2022-09-30T14:21:12.093Z,99849.69
2022-09-30T14:24:17.626Z,99846.06
2022-09-30T14:27:39.550Z,99848.66
2022-09-30T14:31:03.623Z,99851.84
2022-09-30T14:34:10.245Z,99848.81
2022-09-30T14:37:18.559Z,99845.66
2022-09-30T14:40:25.922Z,99848.28
2022-09-30T14:43:38.864Z,99857.75
2022-09-30T14:46:48.483Z,99861.38
2022-09-30T14:49:50.293Z,99863.38
2022-09-30T14:52:57.072Z,99855.59
2022-09-30T14:55:59.385Z,99867.94
2022-09-30T14:59:15.891Z,99859.56
2022-09-30T15:02:21.851Z,99855.75
2022-09-30T15:05:24.198Z,99856.28
2022-09-30T15:08:27.563Z,99850.50
2022-09-30T15:11:29.638Z,99852.78
2022-09-30T15:14:32.953Z,99846.06
2022-09-30T15:17:37.131Z,99850.53
2022-09-30T15:20:39.039Z,99848.59
2022-09-30T15:23:44.744Z,99845.47
2022-09-30T15:26:49.126Z,99852.63
2022-09-30T15:29:54.181Z,99846.28
2022-09-30T15:33:00.993Z,99838.06
2022-09-30T15:36:05.802Z,99837.03
2022-09-30T15:39:20.107Z,99838.88
2022-09-30T15:42:35.271Z,99837.44
2022-09-30T15:45:39.475Z,99836.75
2022-09-30T15:48:44.771Z,99834.00
2022-09-30T15:51:46.552Z,99829.91
2022-09-30T15:54:52.412Z,99822.84
2022-09-30T15:57:54.410Z,99825.56
2022-09-30T16:01:12.871Z,99820.75
2022-09-30T16:04:24.643Z,99823.25
2022-09-30T16:07:28.219Z,99824.88
2022-09-30T16:10:31.265Z,99812.75
2022-09-30T16:13:36.365Z,99824.25
2022-09-30T16:16:38.924Z,99827.22
2022-09-30T16:19:40.703Z,99822.25
2022-09-30T16:22:51.523Z,99820.19
2022-09-30T16:26:12.615Z,99824.19
2022-09-30T16:29:17.606Z,99833.16
2022-09-30T16:32:19.731Z,99825.44
2022-09-30T16:35:23.344Z,99828.06
2022-09-30T16:38:24.977Z,99829.19
2022-09-30T16:41:28.692Z,99825.09
2022-09-30T16:44:35.461Z,99824.63
2022-09-30T16:47:37.298Z,99825.03
2022-09-30T16:50:43.176Z,99833.97
2022-09-30T16:53:47.770Z,99828.63
2022-09-30T16:56:50.682Z,99832.19
2022-09-30T16:59:52.186Z,99835.78
2022-09-30T17:02:54.416Z,99845.44
2022-09-30T17:05:56.058Z,99849.78
2022-09-30T17:08:58.167Z,99844.91
2022-09-30T17:12:01.579Z,99846.63
2022-09-30T17:15:03.654Z,99853.59
2022-09-30T17:18:07.823Z,99853.34
2022-09-30T17:21:09.509Z,99855.94
2022-09-30T17:24:11.170Z,99867.84
2022-09-30T17:27:14.117Z,99869.41
2022-09-30T17:30:16.074Z,99871.59
2022-09-30T17:33:20.881Z,99872.78
2022-09-30T17:36:22.502Z,99883.16
2022-09-30T17:39:25.772Z,99880.81
2022-09-30T17:42:47.610Z,99881.38
2022-09-30T17:45:50.765Z,99887.28
2022-09-30T17:48:56.715Z,99891.66
2022-09-30T17:51:58.998Z,99889.34
2022-09-30T17:55:00.718Z,99893.81
2022-09-30T17:58:03.731Z,99887.59
2022-09-30T18:01:07.842Z,99891.06
2022-09-30T18:04:09.730Z,99889.78
2022-09-30T18:07:12.620Z,99898.06
2022-09-30T18:10:14.375Z,99902.31
2022-09-30T18:13:19.262Z,99909.00
2022-09-30T18:16:20.936Z,99904.28
2022-09-30T18:19:22.641Z,99918.25
2022-09-30T18:22:24.306Z,99917.44
2022-09-30T18:25:26.302Z,99918.38
2022-09-30T18:28:29.438Z,99926.38
2022-09-30T18:31:36.787Z,99927.44
2022-09-30T18:34:39.840Z,99922.84
2022-09-30T18:37:42.323Z,99931.78
2022-09-30T18:40:45.639Z,99931.13
2022-09-30T18:43:50.716Z,99936.38
2022-09-30T18:46:54.850Z,99921.88
2022-09-30T18:49:57.292Z,99922.81
2022-09-30T18:53:00.533Z,99926.53
2022-09-30T18:56:03.549Z,99930.25
2022-09-30T19:02:14.624Z,99904.28
2022-09-30T19:05:17.807Z,99901.03
2022-09-30T19:08:19.954Z,99900.94
2022-09-30T19:11:23.058Z,99905.56
2022-09-30T19:14:26.085Z,99895.97
2022-09-30T19:17:31.689Z,99911.13
2022-09-30T19:20:36.479Z,99910.53
2022-09-30T19:23:38.276Z,99897.38
2022-09-30T19:26:40.269Z,99896.81
2022-09-30T19:29:43.253Z,99896.50
2022-09-30T19:32:44.925Z,99904.13
2022-09-30T19:35:51.064Z,99908.63
2022-09-30T19:39:10.025Z,99913.50
2022-09-30T19:42:14.306Z,99917.56
2022-09-30T19:45:22.167Z,99911.44
2022-09-30T19:48:26.601Z,99901.53
2022-09-30T19:51:30.865Z,99903.31
2022-09-30T19:54:40.695Z,99904.97
2022-09-30T19:57:43.269Z,99912.72
2022-09-30T20:00:53.261Z,99919.94
2022-09-30T20:03:56.116Z,99916.81
2022-09-30T20:06:57.751Z,99918.59
2022-09-30T20:10:00.803Z,99924.94
2022-09-30T20:13:02.917Z,99915.88
2022-09-30T20:16:08.628Z,99914.44
2022-09-30T20:19:10.882Z,99921.97
2022-09-30T20:22:12.551Z,99916.19
2022-09-30T20:25:14.373Z,99922.13
2022-09-30T20:28:16.030Z,99920.97
2022-09-30T20:31:19.098Z,99931.50
2022-09-30T20:34:21.191Z,99930.97
2022-09-30T20:37:22.910Z,99920.84
2022-09-30T20:40:24.755Z,99927.53
2022-09-30T20:43:30.039Z,99937.94
2022-09-30T20:46:34.309Z,99933.88
2022-09-30T20:49:36.035Z,99929.00
2022-09-30T20:52:37.636Z,99934.34
2022-09-30T20:55:43.304Z,99933.50
2022-09-30T20:58:45.080Z,99940.78
2022-09-30T21:01:48.052Z,99951.78
2022-09-30T21:04:52.605Z,99958.78
2022-09-30T21:07:54.339Z,99965.19
2022-09-30T21:11:00.338Z,99970.44
2022-09-30T21:14:01.965Z,99984.69
2022-09-30T21:17:05.899Z,99995.56
2022-09-30T21:20:08.642Z,99983.66
2022-09-30T21:23:10.271Z,99981.84
2022-09-30T21:26:13.874Z,99990.28
2022-09-30T21:29:15.492Z,99983.03
2022-09-30T21:32:18.558Z,99983.13
2022-09-30T21:35:21.022Z,99980.56
2022-09-30T21:38:25.089Z,99970.56
2022-09-30T21:41:27.777Z,99961.56
2022-09-30T21:44:29.769Z,99952.75
2022-09-30T21:47:32.785Z,99953.91
2022-09-30T21:50:34.923Z,99951.69
2022-09-30T21:53:38.786Z,99942.00
2022-09-30T21:56:42.557Z,99940.28
2022-09-30T21:59:48.530Z,99946.56
2022-09-30T22:02:53.313Z,99945.41
2022-09-30T22:05:57.312Z,99933.31
2022-09-30T22:09:01.421Z,99931.78
2022-09-30T22:12:08.529Z,99928.31
2022-09-30T22:15:10.575Z,99927.94
2022-09-30T22:18:17.369Z,99924.41
2022-09-30T22:21:19.050Z,99937.00
2022-09-30T22:24:21.831Z,99935.72
2022-09-30T22:27:23.466Z,99935.19
2022-09-30T22:30:27.644Z,99928.38
2022-09-30T22:33:49.236Z,99925.88
2022-09-30T22:37:09.948Z,99923.38
2022-09-30T22:40:12.071Z,99927.81
2022-09-30T22:43:13.736Z,99925.19
2022-09-30T22:46:15.410Z,99926.66
2022-09-30T22:49:19.310Z,99922.84
2022-09-30T22:52:20.910Z,99925.47
2022-09-30T22:55:22.591Z,99921.78
2022-09-30T22:58:24.352Z,99913.09
2022-09-30T23:01:26.881Z,99918.09
2022-09-30T23:04:29.871Z,99918.63
2022-09-30T23:07:31.738Z,99926.91
2022-09-30T23:10:33.391Z,99921.09
2022-09-30T23:13:35.551Z,99919.56
2022-09-30T23:16:37.332Z,99925.19
2022-09-30T23:19:40.333Z,99921.88
2022-09-30T23:22:41.961Z,99914.28
2022-09-30T23:25:43.646Z,99917.72
2022-09-30T23:28:46.245Z,99914.03
2022-09-30T23:31:48.110Z,99915.59
2022-09-30T23:34:51.208Z,99909.94
2022-09-30T23:37:52.904Z,99912.56
2022-09-30T23:40:58.912Z,99915.97
2022-09-30T23:44:01.082Z,99914.69
2022-09-30T23:47:17.678Z,99910.59
2022-09-30T23:50:20.713Z,99910.75
2022-09-30T23:53:23.399Z,99908.78
2022-09-30T23:56:25.254Z,99908.38
2022-09-30T23:59:26.864Z,99898.66
